createdAt,value
2022-07-27T00:00:16.230Z,2.40
2022-07-27T00:05:20.305Z,2.65
2022-07-27T00:10:23.070Z,2.72
2022-07-27T00:15:27.279Z,2.70
2022-07-27T00:20:30.773Z,2.90
2022-07-27T00:30:37.436Z,3.17
2022-07-27T00:35:40.022Z,3.55
2022-07-27T00:40:42.628Z,4.13
2022-07-27T00:45:46.648Z,4.53
2022-07-27T00:50:49.656Z,3.65
2022-07-27T00:55:52.346Z,3.80
2022-07-27T01:00:56.341Z,3.70
2022-07-27T01:06:00.119Z,3.85
2022-07-27T01:11:05.119Z,3.28
2022-07-27T01:16:09.172Z,2.97
2022-07-27T01:21:11.829Z,3.10
2022-07-27T01:26:15.837Z,3.40
2022-07-27T01:31:18.595Z,3.22
2022-07-27T01:36:21.380Z,3.30
2022-07-27T01:41:25.506Z,4.30
2022-07-27T01:46:28.548Z,4.00
2022-07-27T01:51:31.567Z,3.42
2022-07-27T01:56:35.684Z,3.22
2022-07-27T02:01:38.334Z,3.97
2022-07-27T02:06:41.617Z,3.10
2022-07-27T02:12:03.333Z,3.28
2022-07-27T02:17:05.944Z,3.85
2022-07-27T02:27:13.527Z,3.95
2022-07-27T02:32:16.229Z,3.70
2022-07-27T02:37:18.887Z,3.80
2022-07-27T02:42:22.902Z,3.73
2022-07-27T02:47:25.995Z,4.10
2022-07-27T02:52:28.811Z,3.55
2022-07-27T02:57:34.394Z,3.57
2022-07-27T03:02:38.899Z,3.90
2022-07-27T03:07:41.534Z,4.28
2022-07-27T03:12:45.997Z,4.40
2022-07-27T03:17:48.578Z,3.95
2022-07-27T03:22:51.211Z,3.97
2022-07-27T03:27:57.302Z,4.40
2022-07-27T03:33:01.962Z,3.97
2022-07-27T03:38:04.822Z,3.97
2022-07-27T03:43:09.105Z,4.38
2022-07-27T03:48:11.761Z,3.88
2022-07-27T03:53:14.806Z,4.07
2022-07-27T03:58:19.143Z,4.35
2022-07-27T04:03:21.810Z,3.97
2022-07-27T04:08:24.614Z,3.67
2022-07-27T04:13:28.710Z,3.97
2022-07-27T04:18:34.913Z,3.85
2022-07-27T04:23:38.502Z,5.03
2022-07-27T04:28:42.783Z,3.90
2022-07-27T04:33:45.425Z,3.50
2022-07-27T04:38:48.158Z,3.57
2022-07-27T04:43:52.685Z,3.57
2022-07-27T04:48:55.420Z,3.30
2022-07-27T04:53:58.651Z,3.13
2022-07-27T04:59:02.901Z,3.40
2022-07-27T05:04:06.524Z,3.10
2022-07-27T05:09:09.532Z,3.17
2022-07-27T05:14:13.624Z,3.08
2022-07-27T05:19:16.342Z,3.15
2022-07-27T05:24:18.952Z,2.97
2022-07-27T05:29:23.303Z,2.65
2022-07-27T05:34:25.941Z,2.40
2022-07-27T05:39:28.760Z,2.45
2022-07-27T05:54:37.705Z,1.75
2022-07-27T06:09:46.662Z,1.38
2022-07-27T06:14:51.636Z,1.55
2022-07-27T06:19:54.193Z,1.58
2022-07-27T06:24:56.863Z,1.70
2022-07-27T06:30:00.741Z,1.40
2022-07-27T06:35:03.438Z,1.85
2022-07-27T06:40:07.606Z,1.02
2022-07-27T06:45:12.665Z,1.40
2022-07-27T06:50:15.355Z,1.52
2022-07-27T07:00:22.125Z,1.50
2022-07-27T07:05:25.347Z,1.33
2022-07-27T07:10:28.463Z,1.33
2022-07-27T07:15:32.603Z,1.42
2022-07-27T07:20:35.154Z,1.20
2022-07-27T07:25:38.547Z,1.80
2022-07-27T07:30:42.698Z,1.65
2022-07-27T07:36:14.294Z,1.77
2022-07-27T07:41:07.748Z,1.30
2022-07-27T07:46:11.677Z,1.20
2022-07-27T07:51:14.270Z,1.35
2022-07-27T07:56:16.957Z,1.45
2022-07-27T08:01:21.101Z,1.05
2022-07-27T08:06:23.646Z,1.20
2022-07-27T08:11:26.198Z,0.80
2022-07-27T08:16:30.576Z,1.30
2022-07-27T08:21:35.524Z,1.27
2022-07-27T08:26:38.315Z,1.20
2022-07-27T08:31:52.594Z,1.00
2022-07-27T08:36:56.368Z,1.13
2022-07-27T08:42:04.117Z,1.40
2022-07-27T08:47:10.027Z,1.30
2022-07-27T08:52:12.874Z,1.52
2022-07-27T08:57:15.515Z,1.00
2022-07-27T09:02:21.597Z,1.38
2022-07-27T09:07:31.266Z,0.90
2022-07-27T09:12:34.593Z,1.05
2022-07-27T09:17:48.960Z,1.20
2022-07-27T09:22:54.404Z,1.20
2022-07-27T09:27:59.337Z,1.15
2022-07-27T09:33:05.479Z,1.08
2022-07-27T09:38:18.954Z,1.27
2022-07-27T09:44:12.257Z,1.10
2022-07-27T09:48:45.387Z,1.17
2022-07-27T09:53:49.151Z,1.08
2022-07-27T09:58:55.726Z,1.42
2022-07-27T10:04:01.517Z,0.82
2022-07-27T10:09:04.616Z,0.93
2022-07-27T10:14:07.955Z,1.15
2022-07-27T10:19:16.584Z,1.08
2022-07-27T10:24:28.729Z,0.98
2022-07-27T10:29:31.290Z,1.13
2022-07-27T10:39:41.031Z,1.02
2022-07-27T10:45:07.506Z,0.80
2022-07-27T10:50:29.781Z,0.88
2022-07-27T10:55:44.490Z,0.77
2022-07-27T11:00:59.828Z,1.27
2022-07-27T11:06:31.552Z,1.42
2022-07-27T11:11:30.215Z,0.93
2022-07-27T11:16:32.820Z,0.90
2022-07-27T11:21:38.387Z,1.10
2022-07-27T11:26:42.615Z,0.70
2022-07-27T11:31:56.351Z,0.82
2022-07-27T11:37:03.451Z,1.00
2022-07-27T11:42:08.769Z,1.00
2022-07-27T11:47:17.648Z,0.93
2022-07-27T11:52:21.560Z,1.02
2022-07-27T11:57:32.913Z,1.00
2022-07-27T12:02:35.511Z,0.82
2022-07-27T12:07:41.018Z,0.95
2022-07-27T12:12:50.351Z,0.65
2022-07-27T12:17:57.208Z,1.10
2022-07-27T12:23:05.950Z,0.80
2022-07-27T12:28:12.466Z,1.20
2022-07-27T12:33:28.127Z,1.63
2022-07-27T12:38:40.445Z,1.60
2022-07-27T12:43:42.984Z,1.30
2022-07-27T12:48:45.878Z,1.42
2022-07-27T12:53:49.857Z,1.48
2022-07-27T12:59:00.272Z,1.00
2022-07-27T13:04:02.857Z,1.10
2022-07-27T13:09:06.751Z,1.20
2022-07-27T13:14:09.307Z,1.10
2022-07-27T13:19:14.204Z,1.08
2022-07-27T13:24:18.437Z,1.13
2022-07-27T13:29:21.415Z,1.15
2022-07-27T13:34:24.031Z,1.25
2022-07-27T13:39:28.053Z,1.10
2022-07-27T13:44:59.306Z,1.05
2022-07-27T13:49:53.127Z,1.20
2022-07-27T13:54:56.986Z,1.30
2022-07-27T13:59:59.916Z,1.25
2022-07-27T14:05:02.672Z,1.17
2022-07-27T14:10:31.555Z,1.00
2022-07-27T14:15:34.239Z,1.40
2022-07-27T14:20:54.243Z,1.40
2022-07-27T14:26:00.023Z,1.10
2022-07-27T14:31:04.539Z,1.05
2022-07-27T14:36:10.326Z,1.08
2022-07-27T14:41:14.257Z,1.83
2022-07-27T14:46:17.133Z,1.30
2022-07-27T14:51:19.732Z,1.10
2022-07-27T14:56:23.667Z,0.73
2022-07-27T15:01:26.427Z,1.38
2022-07-27T15:06:32.845Z,1.17
2022-07-27T15:11:40.898Z,0.93
2022-07-27T15:16:45.723Z,1.40
2022-07-27T15:21:48.450Z,1.40
2022-07-27T15:26:52.499Z,1.20
2022-07-27T15:31:55.393Z,1.08
2022-07-27T15:36:58.896Z,1.23
2022-07-27T15:42:02.837Z,0.98
2022-07-27T15:47:05.476Z,1.15
2022-07-27T15:52:08.048Z,0.93
2022-07-27T15:57:11.940Z,1.20
2022-07-27T16:02:14.508Z,0.82
2022-07-27T16:07:17.026Z,1.10
2022-07-27T16:12:21.021Z,0.90
2022-07-27T16:17:23.848Z,1.30
2022-07-27T16:22:26.772Z,1.30
2022-07-27T16:27:30.703Z,1.67
2022-07-27T16:32:33.310Z,0.90
2022-07-27T16:42:39.771Z,1.00
2022-07-27T16:47:42.501Z,1.30
2022-07-27T16:52:45.250Z,1.13
2022-07-27T17:02:51.590Z,0.80
2022-07-27T17:07:54.247Z,1.00
2022-07-27T17:12:58.520Z,1.58
2022-07-27T17:18:01.664Z,0.82
2022-07-27T17:28:08.388Z,1.38
2022-07-27T17:33:10.914Z,1.20
2022-07-27T17:38:15.762Z,0.95
2022-07-27T17:43:19.632Z,1.02
2022-07-27T17:48:22.242Z,1.65
2022-07-27T17:53:26.914Z,1.00
2022-07-27T17:58:30.952Z,1.10
2022-07-27T18:03:33.948Z,1.02
2022-07-27T18:08:37.286Z,1.65
2022-07-27T18:13:41.810Z,0.82
2022-07-27T18:18:45.550Z,1.10
2022-07-27T18:23:48.346Z,1.00
2022-07-27T18:28:52.955Z,1.45
2022-07-27T18:33:56.016Z,0.98
2022-07-27T18:38:58.761Z,1.50
2022-07-27T18:44:02.693Z,1.00
2022-07-27T18:49:05.804Z,1.20
2022-07-27T18:54:10.547Z,1.67
2022-07-27T18:59:16.063Z,1.27
2022-07-27T19:04:18.898Z,0.90
2022-07-27T19:14:26.312Z,1.00
2022-07-27T19:19:29.576Z,1.20
2022-07-27T19:24:32.640Z,1.90
2022-07-27T19:29:36.583Z,1.15
2022-07-27T19:34:39.354Z,0.95
2022-07-27T19:39:57.208Z,0.93
2022-07-27T19:45:07.242Z,1.20
2022-07-27T19:50:10.739Z,1.23
2022-07-27T19:55:13.393Z,1.38
2022-07-27T20:00:18.204Z,1.33
2022-07-27T20:05:21.232Z,1.17
2022-07-27T20:10:25.224Z,1.30
2022-07-27T20:15:29.748Z,1.25
2022-07-27T20:20:32.840Z,1.02
2022-07-27T20:25:35.827Z,1.02
2022-07-27T20:30:39.853Z,1.30
2022-07-27T20:35:42.448Z,1.27
2022-07-27T20:40:45.052Z,1.37
2022-07-27T20:45:49.020Z,0.90
2022-07-27T20:50:51.651Z,1.38
2022-07-27T20:55:54.657Z,1.10
2022-07-27T21:00:58.840Z,1.13
2022-07-27T21:06:01.591Z,1.30
2022-07-27T21:11:06.066Z,1.05
2022-07-27T21:16:10.000Z,1.20
2022-07-27T21:21:12.600Z,1.40
2022-07-27T21:26:15.591Z,1.53
2022-07-27T21:31:22.256Z,1.70
2022-07-27T21:36:25.261Z,2.30
2022-07-27T21:41:28.021Z,1.50
2022-07-27T21:46:32.086Z,1.50
2022-07-27T21:51:35.045Z,1.25
2022-07-27T21:56:40.858Z,1.20
2022-07-27T22:01:46.569Z,1.58
2022-07-27T22:06:49.087Z,1.25
2022-07-27T22:11:51.655Z,1.73
2022-07-27T22:16:56.495Z,1.63
2022-07-27T22:21:59.120Z,1.58
2022-07-27T22:27:01.605Z,1.50
2022-07-27T22:32:06.805Z,1.40
2022-07-27T22:37:09.366Z,1.80
2022-07-27T22:42:15.454Z,1.65
2022-07-27T22:47:19.331Z,1.53
2022-07-27T22:52:21.866Z,1.80
2022-07-27T22:57:25.697Z,1.80
2022-07-27T23:02:29.576Z,2.35
2022-07-27T23:07:32.219Z,1.90
2022-07-27T23:12:34.755Z,1.67
2022-07-27T23:17:38.894Z,1.80
2022-07-27T23:22:41.592Z,1.83
2022-07-27T23:27:44.548Z,2.00
2022-07-27T23:32:48.417Z,2.50
2022-07-27T23:37:50.956Z,2.40
2022-07-27T23:42:53.527Z,2.28
2022-07-27T23:47:57.418Z,2.22
2022-07-27T23:53:00.274Z,2.50
2022-07-27T23:58:02.905Z,2.53
